Terminal Aerodrome Forecast
Issued by NWS

Home | Current Version | Previous Version | Text Only | Print | Product List | Glossary On
Versions: 1 2 3 4 5 6 7 8 9 10 11 12 13 14 15 16 17 18 19
000
FTUS44 KOUN 272023 AAA
TAFWWR
TAF AMD
KWWR 272023Z 2720/2818 23013G21KT P6SM SCT080
      TEMPO 2722/2724 VRB40KT -TSRA BKN050CB
     FM280000 32010KT P6SM SCT080=

USA.gov is the U.S. government's official web portal to all federal, state and local government web resources and services.